Time,TemperatureF,DewpointF,PressureIn,WindDirection,WindDirectionDegrees,WindSpeedMPH,WindSpeedGustMPH,Humidity,HourlyPrecipIn,Conditions,Clouds,dailyrainin,SoftwareType,DateUTC
2013-06-04 00:01:00,56.4,48.2,29.89,NNE,23,0.0,0.0,74,0.00,CLR,SKC,0.00,WeatherDisplay:10.37,2013-06-04 04:01:00,
2013-06-04 00:06:00,56.2,48.4,29.89,NNE,23,0.0,0.0,75,0.00,CLR,SKC,0.00,WeatherDisplay:10.37,2013-06-04 04:06:00,
2013-06-04 00:11:00,56.0,48.5,29.89,NNE,23,0.0,0.0,76,0.00,CLR,SKC,0.00,WeatherDisplay:10.37,2013-06-04 04:11:00,
2013-06-04 00:16:00,55.9,47.7,29.90,NNE,23,0.0,0.0,74,0.00,CLR,SKC,0.00,WeatherDisplay:10.37,2013-06-04 04:16:00,
2013-06-04 00:21:00,55.7,47.5,29.90,NNE,23,0.0,0.0,74,0.00,CLR,SKC,0.00,WeatherDisplay:10.37,2013-06-04 04:21:00,
2013-06-04 00:26:00,55.5,46.6,29.90,NNE,23,0.0,0.0,72,0.00,CLR,SKC,0.00,WeatherDisplay:10.37,2013-06-04 04:26:00,
2013-06-04 00:31:00,55.4,45.0,29.90,West,271,3.4,0.0,68,0.00,CLR,SKC,0.00,WeatherDisplay:10.37,2013-06-04 04:31:00,
2013-06-04 00:36:00,55.6,44.0,29.90,West,270,0.0,0.0,65,0.00,CLR,SKC,0.00,WeatherDisplay:10.37,2013-06-04 04:36:00,
2013-06-04 00:41:00,56.1,42.4,29.91,ENE,58,0.0,0.0,60,0.00,CLR,SKC,0.00,WeatherDisplay:10.37,2013-06-04 04:41:00,
2013-06-04 00:46:00,56.6,42.4,29.91,ENE,58,0.0,0.0,59,0.00,CLR,SKC,0.00,WeatherDisplay:10.37,2013-06-04 04:46:00,
2013-06-04 00:51:00,57.1,41.5,29.91,West,267,0.0,0.1,56,0.00,CLR,SKC,0.00,WeatherDisplay:10.37,2013-06-04 04:51:00,
2013-06-04 00:56:00,57.6,42.0,29.91,NNE,32,2.3,0.0,56,0.00,CLR,SKC,0.00,WeatherDisplay:10.37,2013-06-04 04:56:00,
2013-06-04 01:01:00,57.9,41.8,29.91,NE,50,0.0,0.3,55,0.00,CLR,SKC,0.00,WeatherDisplay:10.37,2013-06-04 05:01:00,
2013-06-04 01:06:00,58.0,41.4,29.91,ENE,75,0.0,0.0,54,0.00,CLR,SKC,0.00,WeatherDisplay:10.37,2013-06-04 05:06:00,
2013-06-04 01:11:00,58.1,42.0,29.92,ENE,75,0.0,0.0,55,0.00,CLR,SKC,0.00,WeatherDisplay:10.37,2013-06-04 05:11:00,
2013-06-04 01:16:00,58.0,41.4,29.92,ENE,71,0.0,0.0,54,0.00,CLR,SKC,0.00,WeatherDisplay:10.37,2013-06-04 05:16:00,
2013-06-04 01:21:00,58.0,41.0,29.92,NE,45,0.0,0.0,53,0.00,CLR,SKC,0.00,WeatherDisplay:10.37,2013-06-04 05:21:00,
2013-06-04 01:26:00,58.0,41.0,29.92,NW,307,0.0,0.0,53,0.00,CLR,SKC,0.00,WeatherDisplay:10.37,2013-06-04 05:26:00,
2013-06-04 01:31:00,58.0,41.0,29.92,North,360,0.0,0.3,53,0.00,CLR,SKC,0.00,WeatherDisplay:10.37,2013-06-04 05:31:00,
2013-06-04 01:36:00,57.9,40.9,29.93,NW,306,2.3,2.3,53,0.00,CLR,SKC,0.00,WeatherDisplay:10.37,2013-06-04 05:36:00,
2013-06-04 01:41:00,57.8,40.8,29.93,NNE,26,2.3,0.0,53,0.00,CLR,SKC,0.00,WeatherDisplay:10.37,2013-06-04 05:41:00,
2013-06-04 01:46:00,57.7,40.7,29.93,NNE,27,0.0,0.0,53,0.00,CLR,SKC,0.00,WeatherDisplay:10.37,2013-06-04 05:46:00,
2013-06-04 01:51:00,57.4,40.9,29.93,NNE,26,0.0,0.1,54,0.00,CLR,SKC,0.00,WeatherDisplay:10.37,2013-06-04 05:51:00,
2013-06-04 01:56:00,57.3,40.8,29.93,NNE,26,0.0,0.0,54,0.00,CLR,SKC,0.00,WeatherDisplay:10.37,2013-06-04 05:56:00,
2013-06-04 02:01:00,57.0,41.0,29.94,NNE,26,0.0,0.0,55,0.00,CLR,SKC,0.00,WeatherDisplay:10.37,2013-06-04 06:01:00,
2013-06-04 02:06:00,56.6,41.1,29.94,NNE,26,0.0,0.0,56,0.00,CLR,SKC,0.00,WeatherDisplay:10.37,2013-06-04 06:06:00,
2013-06-04 02:11:00,56.2,40.7,29.94,NNE,26,0.0,0.0,56,0.00,CLR,SKC,0.00,WeatherDisplay:10.37,2013-06-04 06:11:00,
2013-06-04 02:16:00,55.8,40.8,29.94,NNE,26,0.0,0.0,57,0.00,CLR,SKC,0.00,WeatherDisplay:10.37,2013-06-04 06:16:00,
2013-06-04 02:22:00,55.4,40.9,29.94,NNE,26,0.0,0.0,58,0.00,CLR,SKC,0.00,WeatherDisplay:10.37,2013-06-04 06:22:00,
2013-06-04 02:27:00,55.0,41.4,29.94,NNE,26,0.0,0.0,60,0.00,CLR,SKC,0.00,WeatherDisplay:10.37,2013-06-04 06:27:00,
2013-06-04 02:32:00,54.5,41.7,29.94,NNE,26,0.0,0.0,62,0.00,CLR,SKC,0.00,WeatherDisplay:10.37,2013-06-04 06:32:00,
2013-06-04 02:37:00,54.1,41.8,29.94,NNE,26,0.0,0.0,63,0.00,CLR,SKC,0.00,WeatherDisplay:10.37,2013-06-04 06:37:00,
2013-06-04 02:42:00,53.6,41.7,29.94,NNE,26,0.0,0.0,64,0.00,CLR,SKC,0.00,WeatherDisplay:10.37,2013-06-04 06:42:00,
2013-06-04 02:47:00,53.2,41.7,29.94,NNE,26,0.0,0.0,65,0.00,CLR,SKC,0.00,WeatherDisplay:10.37,2013-06-04 06:47:00,
2013-06-04 02:52:00,52.9,41.8,29.94,NNE,26,0.0,0.0,66,0.00,CLR,SKC,0.00,WeatherDisplay:10.37,2013-06-04 06:52:00,
2013-06-04 02:57:00,52.5,42.2,29.94,NNE,26,0.0,0.0,68,0.00,CLR,SKC,0.00,WeatherDisplay:10.37,2013-06-04 06:57:00,
2013-06-04 03:02:00,52.2,42.3,29.94,NNE,26,0.0,0.0,69,0.00,CLR,SKC,0.00,WeatherDisplay:10.37,2013-06-04 07:02:00,
2013-06-04 03:07:00,51.8,42.3,29.94,NNE,26,0.0,0.0,70,0.00,CLR,SKC,0.00,WeatherDisplay:10.37,2013-06-04 07:07:00,
2013-06-04 03:12:00,51.4,42.3,29.94,NNE,26,0.0,0.0,71,0.00,CLR,SKC,0.00,WeatherDisplay:10.37,2013-06-04 07:12:00,
2013-06-04 03:17:00,51.0,41.6,29.94,NNE,26,0.0,0.0,70,0.00,CLR,SKC,0.00,WeatherDisplay:10.37,2013-06-04 07:17:00,
2013-06-04 03:22:00,50.7,41.6,29.94,NNE,26,0.0,0.0,71,0.00,CLR,SKC,0.00,WeatherDisplay:10.37,2013-06-04 07:22:00,
2013-06-04 03:27:00,50.5,41.8,29.94,NNE,26,0.0,0.0,72,0.00,CLR,SKC,0.00,WeatherDisplay:10.37,2013-06-04 07:27:00,
2013-06-04 03:32:00,50.2,41.9,29.94,NNE,26,0.0,0.0,73,0.00,CLR,SKC,0.00,WeatherDisplay:10.37,2013-06-04 07:32:00,
2013-06-04 03:37:00,50.0,42.0,29.94,NNE,26,0.0,0.0,74,0.00,CLR,SKC,0.00,WeatherDisplay:10.37,2013-06-04 07:37:00,
2013-06-04 03:42:00,49.8,42.2,29.95,NNE,26,0.0,0.1,75,0.00,CLR,SKC,0.00,WeatherDisplay:10.37,2013-06-04 07:42:00,
2013-06-04 03:47:00,49.7,41.7,29.95,NNE,26,0.0,0.0,74,0.00,CLR,SKC,0.00,WeatherDisplay:10.37,2013-06-04 07:47:00,
2013-06-04 03:52:00,49.6,42.0,29.95,NNE,26,0.0,0.0,75,0.00,CLR,SKC,0.00,WeatherDisplay:10.37,2013-06-04 07:52:00,
2013-06-04 03:57:00,49.5,41.9,29.95,NNE,26,0.0,0.0,75,0.00,CLR,SKC,0.00,WeatherDisplay:10.37,2013-06-04 07:57:00,
2013-06-04 04:02:00,49.4,42.1,29.95,NNE,26,0.0,0.0,76,0.00,CLR,SKC,0.00,WeatherDisplay:10.37,2013-06-04 08:02:00,
2013-06-04 04:07:00,49.3,42.4,29.95,NNE,26,0.0,0.0,77,0.00,CLR,SKC,0.00,WeatherDisplay:10.37,2013-06-04 08:07:00,
2013-06-04 04:12:00,49.2,42.3,29.95,NNE,26,0.0,0.0,77,0.00,CLR,SKC,0.00,WeatherDisplay:10.37,2013-06-04 08:12:00,
2013-06-04 04:17:00,49.1,42.5,29.95,NNE,26,0.0,0.0,78,0.00,CLR,SKC,0.00,WeatherDisplay:10.37,2013-06-04 08:17:00,
2013-06-04 04:22:00,49.1,42.9,29.95,NNE,26,0.0,0.0,79,0.00,CLR,SKC,0.00,WeatherDisplay:10.37,2013-06-04 08:22:00,
2013-06-04 04:27:00,49.1,42.9,29.95,NNE,26,0.0,0.0,79,0.00,CLR,SKC,0.00,WeatherDisplay:10.37,2013-06-04 08:27:00,
2013-06-04 04:32:00,49.0,42.8,29.95,NNE,26,0.0,0.0,79,0.00,CLR,SKC,0.00,WeatherDisplay:10.37,2013-06-04 08:32:00,
2013-06-04 04:37:00,48.8,42.6,29.95,NNE,26,0.0,0.0,79,0.00,CLR,SKC,0.00,WeatherDisplay:10.37,2013-06-04 08:37:00,
2013-06-04 04:42:00,48.7,42.5,29.96,NNE,26,0.0,0.0,79,0.00,CLR,SKC,0.00,WeatherDisplay:10.37,2013-06-04 08:42:00,
2013-06-04 04:47:00,48.5,42.6,29.95,NNE,26,0.0,0.0,80,0.00,CLR,SKC,0.00,WeatherDisplay:10.37,2013-06-04 08:47:00,
2013-06-04 04:52:00,48.4,42.5,29.95,NNE,26,0.0,0.0,80,0.00,CLR,SKC,0.00,WeatherDisplay:10.37,2013-06-04 08:52:00,
2013-06-04 04:57:00,48.2,42.6,29.95,NNE,26,0.0,0.0,81,0.00,CLR,SKC,0.00,WeatherDisplay:10.37,2013-06-04 08:57:00,
2013-06-04 05:02:00,48.0,42.4,29.96,NNE,26,0.0,0.0,81,0.00,CLR,SKC,0.00,WeatherDisplay:10.37,2013-06-04 09:02:00,
2013-06-04 05:07:00,47.8,42.6,29.96,NNE,26,0.0,0.0,82,0.00,CLR,SKC,0.00,WeatherDisplay:10.37,2013-06-04 09:07:00,
2013-06-04 05:12:00,47.6,42.4,29.96,NNE,26,0.0,0.0,82,0.00,CLR,SKC,0.00,WeatherDisplay:10.37,2013-06-04 09:12:00,
2013-06-04 05:17:00,47.4,42.5,29.96,NNE,26,0.0,0.0,83,0.00,CLR,SKC,0.00,WeatherDisplay:10.37,2013-06-04 09:17:00,
2013-06-04 05:22:00,47.2,42.3,29.96,NNE,26,0.0,0.0,83,0.00,CLR,SKC,0.00,WeatherDisplay:10.37,2013-06-04 09:22:00,
2013-06-04 05:27:00,47.0,42.4,29.97,NNE,26,0.0,0.0,84,0.00,CLR,SKC,0.00,WeatherDisplay:10.37,2013-06-04 09:27:00,
2013-06-04 05:32:00,46.9,42.3,29.97,NNE,26,0.0,0.0,84,0.00,CLR,SKC,0.00,WeatherDisplay:10.37,2013-06-04 09:32:00,
2013-06-04 05:37:00,46.7,42.1,29.97,NNE,26,0.0,0.0,84,0.00,CLR,SKC,0.00,WeatherDisplay:10.37,2013-06-04 09:37:00,
2013-06-04 05:42:00,46.5,42.2,29.97,NNE,26,0.0,0.0,85,0.00,CLR,SKC,0.00,WeatherDisplay:10.37,2013-06-04 09:42:00,
2013-06-04 05:47:00,46.3,42.0,29.97,NNE,26,0.0,0.0,85,0.00,CLR,SKC,0.00,WeatherDisplay:10.37,2013-06-04 09:47:00,
2013-06-04 05:52:00,46.2,42.2,29.97,NNE,26,0.0,0.0,86,0.00,CLR,SKC,0.00,WeatherDisplay:10.37,2013-06-04 09:52:00,
2013-06-04 05:57:00,46.1,42.1,29.98,NNE,26,0.0,0.0,86,0.00,CLR,SKC,0.00,WeatherDisplay:10.37,2013-06-04 09:57:00,
2013-06-04 06:02:00,46.1,42.1,29.98,NNE,26,0.0,0.0,86,0.00,CLR,SKC,0.00,WeatherDisplay:10.37,2013-06-04 10:02:00,
2013-06-04 06:07:00,46.0,42.0,29.98,NNE,26,0.0,0.0,86,0.00,CLR,SKC,0.00,WeatherDisplay:10.37,2013-06-04 10:07:00,
2013-06-04 06:12:00,46.0,42.3,29.98,NNE,26,0.0,0.0,87,0.00,CLR,SKC,0.00,WeatherDisplay:10.37,2013-06-04 10:12:00,
2013-06-04 06:17:00,46.0,42.6,29.98,NNE,26,0.0,0.0,88,0.00,CLR,SKC,0.00,WeatherDisplay:10.37,2013-06-04 10:17:00,
2013-06-04 06:21:00,46.1,42.7,29.98,NNE,26,0.0,0.0,88,0.00,CLR,SKC,0.00,WeatherDisplay:10.37,2013-06-04 10:21:00,
2013-06-04 06:26:00,46.1,42.7,29.98,NNE,26,0.0,0.0,88,0.00,CLR,SKC,0.00,WeatherDisplay:10.37,2013-06-04 10:26:00,
2013-06-04 06:31:00,46.3,43.2,29.98,NNE,26,0.0,0.0,89,0.00,CLR,SKC,0.00,WeatherDisplay:10.37,2013-06-04 10:31:00,
2013-06-04 06:36:00,46.5,43.4,29.98,NNE,26,0.0,0.0,89,0.00,CLR,SKC,0.00,WeatherDisplay:10.37,2013-06-04 10:36:00,
2013-06-04 06:41:00,46.7,43.3,29.98,NNE,26,0.0,0.0,88,0.00,CLR,SKC,0.00,WeatherDisplay:10.37,2013-06-04 10:41:00,
2013-06-04 06:46:00,46.8,43.7,29.98,NNE,26,0.0,0.0,89,0.00,CLR,SKC,0.00,WeatherDisplay:10.37,2013-06-04 10:46:00,
2013-06-04 06:51:00,47.1,44.0,29.98,NNE,26,0.0,0.0,89,0.00,CLR,SKC,0.00,WeatherDisplay:10.37,2013-06-04 10:51:00,
2013-06-04 06:56:00,47.4,44.0,29.99,NNE,26,0.0,0.0,88,0.00,CLR,SKC,0.00,WeatherDisplay:10.37,2013-06-04 10:56:00,
2013-06-04 07:01:00,47.8,44.1,29.99,NNE,26,0.0,0.0,87,0.00,CLR,SKC,0.00,WeatherDisplay:10.37,2013-06-04 11:01:00,
2013-06-04 07:06:00,48.3,44.3,29.99,NNE,26,0.0,0.0,86,0.00,CLR,SKC,0.00,WeatherDisplay:10.37,2013-06-04 11:06:00,
2013-06-04 07:11:00,48.8,44.2,29.99,NNE,26,0.0,0.0,84,0.00,CLR,SKC,0.00,WeatherDisplay:10.37,2013-06-04 11:11:00,
2013-06-04 07:16:00,49.4,44.5,29.99,NNE,26,0.0,0.0,83,0.00,CLR,SKC,0.00,WeatherDisplay:10.37,2013-06-04 11:16:00,
2013-06-04 07:21:00,49.9,44.3,29.99,NNE,26,0.0,0.0,81,0.00,CLR,SKC,0.00,WeatherDisplay:10.37,2013-06-04 11:21:00,
2013-06-04 07:26:00,50.5,44.9,29.99,NNE,26,0.0,0.0,81,0.00,CLR,SKC,0.00,WeatherDisplay:10.37,2013-06-04 11:26:00,
2013-06-04 07:31:00,51.0,45.0,29.99,NNE,19,2.3,0.0,80,0.00,CLR,SKC,0.00,WeatherDisplay:10.37,2013-06-04 11:31:00,
2013-06-04 07:36:00,51.6,45.6,29.99,NNE,24,0.0,0.0,80,0.00,CLR,SKC,0.00,WeatherDisplay:10.37,2013-06-04 11:36:00,
2013-06-04 07:41:00,52.2,45.5,30.00,NNW,331,3.4,3.4,78,0.00,CLR,SKC,0.00,WeatherDisplay:10.37,2013-06-04 11:41:00,
2013-06-04 07:46:00,52.9,46.2,30.00,NNW,331,0.0,0.0,78,0.00,CLR,SKC,0.00,WeatherDisplay:10.37,2013-06-04 11:46:00,
2013-06-04 07:51:00,53.5,46.1,30.00,North,5,0.0,0.0,76,0.00,CLR,SKC,0.00,WeatherDisplay:10.37,2013-06-04 11:51:00,
2013-06-04 07:56:00,54.2,45.7,30.00,North,360,0.0,0.0,73,0.00,CLR,SKC,0.00,WeatherDisplay:10.37,2013-06-04 11:56:00,
2013-06-04 08:02:00,54.9,46.0,30.00,NE,52,1.1,1.1,72,0.00,CLR,SKC,0.00,WeatherDisplay:10.37,2013-06-04 12:02:00,
2013-06-04 08:06:00,55.7,46.4,30.00,NE,52,1.1,0.0,71,0.00,CLR,SKC,0.00,WeatherDisplay:10.37,2013-06-04 12:06:00,
2013-06-04 08:11:00,56.4,46.7,30.00,NE,49,2.3,2.3,70,0.00,CLR,SKC,0.00,WeatherDisplay:10.37,2013-06-04 12:11:00,
2013-06-04 08:16:00,57.2,47.1,30.00,NE,46,3.4,3.4,69,0.00,CLR,SKC,0.00,WeatherDisplay:10.37,2013-06-04 12:16:00,
2013-06-04 08:21:00,57.9,45.8,30.00,NE,36,2.3,2.3,64,0.00,CLR,SKC,0.00,WeatherDisplay:10.37,2013-06-04 12:21:00,
2013-06-04 08:26:00,58.5,46.8,30.01,NW,317,3.4,3.4,65,0.00,CLR,SKC,0.00,WeatherDisplay:10.37,2013-06-04 12:26:00,
2013-06-04 08:31:00,59.0,46.8,30.01,NNE,24,3.4,3.4,64,0.00,CLR,SKC,0.00,WeatherDisplay:10.37,2013-06-04 12:31:00,
2013-06-04 08:36:00,59.5,47.3,30.01,NE,38,4.0,4.0,64,0.00,CLR,SKC,0.00,WeatherDisplay:10.37,2013-06-04 12:36:00,
2013-06-04 08:41:00,60.2,47.1,30.01,NE,38,3.0,3.0,62,0.00,CLR,SKC,0.00,WeatherDisplay:10.37,2013-06-04 12:41:00,
2013-06-04 08:46:00,60.7,46.3,30.01,ENE,77,1.1,1.1,59,0.00,CLR,SKC,0.00,WeatherDisplay:10.37,2013-06-04 12:46:00,
2013-06-04 08:51:00,61.1,46.7,30.01,North,355,3.4,3.4,59,0.00,CLR,SKC,0.00,WeatherDisplay:10.37,2013-06-04 12:51:00,
2013-06-04 08:56:00,61.5,47.0,30.02,NNE,31,3.4,3.4,59,0.00,CLR,SKC,0.00,WeatherDisplay:10.37,2013-06-04 12:56:00,
2013-06-04 09:01:00,62.0,46.1,30.02,NNW,341,4.6,4.6,56,0.00,CLR,SKC,0.00,WeatherDisplay:10.37,2013-06-04 13:01:00,
2013-06-04 09:06:00,62.1,47.1,30.02,NNE,20,3.4,3.4,58,0.00,CLR,SKC,0.00,WeatherDisplay:10.37,2013-06-04 13:06:00,
2013-06-04 09:11:00,62.3,46.4,30.02,NE,35,3.4,3.4,56,0.00,CLR,SKC,0.00,WeatherDisplay:10.37,2013-06-04 13:11:00,
2013-06-04 09:16:00,62.6,47.6,30.02,SSW,202,4.6,4.6,58,0.00,CLR,SKC,0.00,WeatherDisplay:10.37,2013-06-04 13:16:00,
2013-06-04 09:21:00,63.0,47.5,30.02,NNW,348,1.1,1.8,57,0.00,CLR,SKC,0.00,WeatherDisplay:10.37,2013-06-04 13:21:00,
2013-06-04 09:26:00,63.0,47.5,30.03,NE,44,4.6,4.6,57,0.00,CLR,SKC,0.00,WeatherDisplay:10.37,2013-06-04 13:26:00,
2013-06-04 09:31:00,63.1,46.7,30.03,NNE,22,3.4,3.4,55,0.00,CLR,SKC,0.00,WeatherDisplay:10.37,2013-06-04 13:31:00,
2013-06-04 09:36:00,63.2,46.3,30.03,NE,38,5.8,5.8,54,0.00,CLR,SKC,0.00,WeatherDisplay:10.37,2013-06-04 13:36:00,
2013-06-04 09:41:00,63.5,46.1,30.03,NW,313,1.1,0.0,53,0.00,CLR,SKC,0.00,WeatherDisplay:10.37,2013-06-04 13:41:00,
2013-06-04 09:46:00,63.8,46.3,30.03,NE,46,6.9,6.9,53,0.00,CLR,SKC,0.00,WeatherDisplay:10.37,2013-06-04 13:46:00,
2013-06-04 09:51:00,63.9,46.4,30.03,NNE,13,4.6,4.6,53,0.00,CLR,SKC,0.00,WeatherDisplay:10.37,2013-06-04 13:51:00,
2013-06-04 09:56:00,64.0,46.5,30.03,NW,315,3.4,3.4,53,0.00,CLR,SKC,0.00,WeatherDisplay:10.37,2013-06-04 13:56:00,
2013-06-04 10:01:00,64.2,45.7,30.03,NNE,12,4.6,4.6,51,0.00,CLR,SKC,0.00,WeatherDisplay:10.37,2013-06-04 14:01:00,
2013-06-04 10:06:00,64.4,46.9,30.03,NE,44,1.1,1.1,53,0.00,CLR,SKC,0.00,WeatherDisplay:10.37,2013-06-04 14:06:00,
2013-06-04 10:11:00,64.6,45.5,30.03,NNE,29,7.0,7.0,50,0.00,CLR,SKC,0.00,WeatherDisplay:10.37,2013-06-04 14:11:00,
2013-06-04 10:16:00,64.7,45.1,30.03,NNW,344,5.8,5.8,49,0.00,CLR,SKC,0.00,WeatherDisplay:10.37,2013-06-04 14:16:00,
2013-06-04 10:21:00,64.6,48.1,30.02,East,80,4.6,4.6,55,0.00,CLR,SKC,0.00,WeatherDisplay:10.37,2013-06-04 14:21:00,
2013-06-04 10:27:00,64.8,47.8,30.02,NNE,28,3.4,3.4,54,0.00,CLR,SKC,0.00,WeatherDisplay:10.37,2013-06-04 14:27:00,
2013-06-04 10:31:00,65.2,47.1,30.03,NNE,19,2.3,2.3,52,0.00,CLR,SKC,0.00,WeatherDisplay:10.37,2013-06-04 14:31:00,
2013-06-04 10:36:00,65.4,47.3,30.03,North,360,4.0,4.0,52,0.00,CLR,SKC,0.00,WeatherDisplay:10.37,2013-06-04 14:36:00,
2013-06-04 10:41:00,65.4,47.8,30.03,NE,44,6.9,6.9,53,0.00,CLR,SKC,0.00,WeatherDisplay:10.37,2013-06-04 14:41:00,
2013-06-04 10:47:00,65.7,48.1,30.03,NE,51,1.1,1.1,53,0.00,CLR,SKC,0.00,WeatherDisplay:10.37,2013-06-04 14:47:00,
2013-06-04 10:52:00,65.9,48.3,30.03,NE,51,6.9,6.9,53,0.00,CLR,SKC,0.00,WeatherDisplay:10.37,2013-06-04 14:52:00,
2013-06-04 10:57:00,65.8,48.7,30.03,NE,40,8.1,8.1,54,0.00,CLR,SKC,0.00,WeatherDisplay:10.37,2013-06-04 14:57:00,
2013-06-04 11:02:00,65.9,46.2,30.03,NE,38,3.4,3.4,49,0.00,CLR,SKC,0.00,WeatherDisplay:10.37,2013-06-04 15:02:00,
2013-06-04 11:07:00,66.1,46.9,30.03,NNW,344,4.0,4.0,50,0.00,CLR,SKC,0.00,WeatherDisplay:10.37,2013-06-04 15:07:00,
2013-06-04 11:12:00,66.3,47.6,30.03,East,88,3.4,3.4,51,0.00,CLR,SKC,0.00,WeatherDisplay:10.37,2013-06-04 15:12:00,
2013-06-04 11:17:00,66.5,46.2,30.03,NNE,33,1.0,1.0,48,0.00,CLR,SKC,0.00,WeatherDisplay:10.37,2013-06-04 15:17:00,
2013-06-04 11:22:00,66.9,51.6,30.03,NE,39,0.0,0.7,58,0.00,CLR,SKC,0.00,WeatherDisplay:10.37,2013-06-04 15:22:00,
2013-06-04 11:27:00,67.4,48.1,30.03,North,9,3.4,3.4,50,0.00,CLR,SKC,0.00,WeatherDisplay:10.37,2013-06-04 15:27:00,
2013-06-04 11:32:00,67.6,47.2,30.03,SW,221,5.8,5.8,48,0.00,CLR,SKC,0.00,WeatherDisplay:10.37,2013-06-04 15:32:00,
2013-06-04 11:37:00,67.6,48.3,30.03,SW,229,2.0,0.0,50,0.00,CLR,SKC,0.00,WeatherDisplay:10.37,2013-06-04 15:37:00,
2013-06-04 11:42:00,67.7,48.4,30.03,ENE,76,3.4,3.4,50,0.00,CLR,SKC,0.00,WeatherDisplay:10.37,2013-06-04 15:42:00,
2013-06-04 11:47:00,68.1,45.9,30.03,ENE,69,2.3,2.3,45,0.00,CLR,SKC,0.00,WeatherDisplay:10.37,2013-06-04 15:47:00,
2013-06-04 11:52:00,68.5,49.1,30.03,NE,38,3.4,0.0,50,0.00,CLR,SKC,0.00,WeatherDisplay:10.37,2013-06-04 15:52:00,
2013-06-04 11:57:00,69.1,50.2,30.03,ESE,103,3.4,3.4,51,0.00,CLR,SKC,0.00,WeatherDisplay:10.37,2013-06-04 15:57:00,
2013-06-04 12:02:00,69.4,48.3,30.03,NNE,30,4.0,4.0,47,0.00,CLR,SKC,0.00,WeatherDisplay:10.37,2013-06-04 16:02:00,
2013-06-04 12:07:00,69.3,47.6,30.03,NNE,32,4.6,0.0,46,0.00,CLR,SKC,0.00,WeatherDisplay:10.37,2013-06-04 16:07:00,
2013-06-04 12:12:00,69.3,49.9,30.03,NNE,29,5.8,5.8,50,0.00,CLR,SKC,0.00,WeatherDisplay:10.37,2013-06-04 16:12:00,
2013-06-04 12:17:00,69.4,47.1,30.03,WSW,243,4.6,4.6,45,0.00,CLR,SKC,0.00,WeatherDisplay:10.37,2013-06-04 16:17:00,
2013-06-04 12:22:00,69.3,48.2,30.02,ENE,65,3.4,3.4,47,0.00,CLR,SKC,0.00,WeatherDisplay:10.37,2013-06-04 16:22:00,
2013-06-04 12:27:00,69.4,46.5,30.02,NNE,26,3.4,3.4,44,0.00,CLR,SKC,0.00,WeatherDisplay:10.37,2013-06-04 16:27:00,
2013-06-04 12:32:00,69.5,46.0,30.02,SSW,208,3.4,3.4,43,0.00,CLR,SKC,0.00,WeatherDisplay:10.37,2013-06-04 16:32:00,
2013-06-04 12:37:00,69.8,47.5,30.02,NE,44,3.4,3.4,45,0.00,CLR,SKC,0.00,WeatherDisplay:10.37,2013-06-04 16:37:00,
2013-06-04 12:42:00,70.2,47.3,30.01,NW,323,5.8,5.8,44,0.00,CLR,SKC,0.00,WeatherDisplay:10.37,2013-06-04 16:42:00,
2013-06-04 12:47:00,70.3,48.5,30.01,NNE,30,1.1,1.1,46,0.00,CLR,SKC,0.00,WeatherDisplay:10.37,2013-06-04 16:47:00,
2013-06-04 12:52:00,70.5,49.9,30.01,East,93,3.4,0.0,48,0.00,CLR,SKC,0.00,WeatherDisplay:10.37,2013-06-04 16:52:00,
2013-06-04 12:57:00,70.9,48.5,30.01,NE,47,1.1,1.1,45,0.00,CLR,SKC,0.00,WeatherDisplay:10.37,2013-06-04 16:57:00,
2013-06-04 13:02:00,71.2,46.3,30.01,North,355,5.0,5.0,41,0.00,CLR,SKC,0.00,WeatherDisplay:10.37,2013-06-04 17:02:00,
2013-06-04 13:07:00,71.0,45.5,30.01,North,11,1.1,0.0,40,0.00,CLR,SKC,0.00,WeatherDisplay:10.37,2013-06-04 17:07:00,
2013-06-04 13:12:00,71.2,47.6,30.01,WNW,299,2.3,2.3,43,0.00,CLR,SKC,0.00,WeatherDisplay:10.37,2013-06-04 17:12:00,
2013-06-04 13:17:00,71.6,47.9,30.01,North,360,4.6,4.6,43,0.00,CLR,SKC,0.00,WeatherDisplay:10.37,2013-06-04 17:17:00,
2013-06-04 13:22:00,71.9,49.4,30.01,ENE,67,1.1,1.3,45,0.00,CLR,SKC,0.00,WeatherDisplay:10.37,2013-06-04 17:22:00,
2013-06-04 13:26:00,72.1,47.7,30.00,SSW,213,1.1,1.1,42,0.00,CLR,SKC,0.00,WeatherDisplay:10.37,2013-06-04 17:26:00,
2013-06-04 13:31:00,72.1,48.4,30.00,SSW,210,1.1,0.0,43,0.00,CLR,SKC,0.00,WeatherDisplay:10.37,2013-06-04 17:31:00,
2013-06-04 13:37:00,72.4,48.0,30.00,NNE,33,3.4,3.4,42,0.00,CLR,SKC,0.00,WeatherDisplay:10.37,2013-06-04 17:37:00,
2013-06-04 13:41:00,72.4,50.4,30.00,NNE,23,4.6,4.6,46,0.00,CLR,SKC,0.00,WeatherDisplay:10.37,2013-06-04 17:41:00,
2013-06-04 13:46:00,72.5,48.7,30.00,ENE,66,1.1,1.1,43,0.00,CLR,SKC,0.00,WeatherDisplay:10.37,2013-06-04 17:46:00,
2013-06-04 13:51:00,72.6,48.8,30.00,NNE,27,2.3,0.0,43,0.00,CLR,SKC,0.00,WeatherDisplay:10.37,2013-06-04 17:51:00,
2013-06-04 13:57:00,72.6,50.0,30.00,South,183,3.4,0.0,45,0.00,CLR,SKC,0.00,WeatherDisplay:10.37,2013-06-04 17:57:00,
2013-06-04 14:02:00,72.9,49.7,30.00,East,94,3.4,3.4,44,0.00,CLR,SKC,0.00,WeatherDisplay:10.37,2013-06-04 18:02:00,
2013-06-04 14:07:00,73.2,50.6,30.00,NE,53,4.6,4.6,45,0.00,CLR,SKC,0.00,WeatherDisplay:10.37,2013-06-04 18:07:00,
2013-06-04 14:12:00,73.4,46.2,30.00,NW,321,4.6,4.6,38,0.00,CLR,SKC,0.00,WeatherDisplay:10.37,2013-06-04 18:12:00,
2013-06-04 14:17:00,73.3,45.4,29.99,NE,47,5.8,5.8,37,0.00,CLR,SKC,0.00,WeatherDisplay:10.37,2013-06-04 18:17:00,
2013-06-04 14:22:00,73.4,48.9,29.99,NW,308,4.0,4.0,42,0.00,CLR,SKC,0.00,WeatherDisplay:10.37,2013-06-04 18:22:00,
2013-06-04 14:27:00,73.5,50.2,29.99,NNW,344,8.1,8.1,44,0.00,CLR,SKC,0.00,WeatherDisplay:10.37,2013-06-04 18:27:00,
2013-06-04 14:32:00,73.5,49.0,29.99,ENE,60,3.4,3.4,42,0.00,CLR,SKC,0.00,WeatherDisplay:10.37,2013-06-04 18:32:00,
2013-06-04 14:37:00,73.7,46.5,29.99,ENE,71,2.3,2.3,38,0.00,CLR,SKC,0.00,WeatherDisplay:10.37,2013-06-04 18:37:00,
2013-06-04 14:42:00,73.7,46.5,29.99,NE,54,4.6,4.6,38,0.00,CLR,SKC,0.00,WeatherDisplay:10.37,2013-06-04 18:42:00,
2013-06-04 14:47:00,73.7,45.8,29.99,SSW,211,1.1,1.1,37,0.00,CLR,SKC,0.00,WeatherDisplay:10.37,2013-06-04 18:47:00,
2013-06-04 14:52:00,73.6,48.4,29.99,NNW,342,0.0,0.6,41,0.00,CLR,SKC,0.00,WeatherDisplay:10.37,2013-06-04 18:52:00,
2013-06-04 14:57:00,73.7,47.2,29.99,NE,40,3.4,3.4,39,0.00,CLR,SKC,0.00,WeatherDisplay:10.37,2013-06-04 18:57:00,
2013-06-04 15:02:00,73.9,46.7,29.99,NE,34,4.6,4.6,38,0.00,CLR,SKC,0.00,WeatherDisplay:10.37,2013-06-04 19:02:00,
2013-06-04 15:07:00,74.2,50.3,29.99,NNE,13,4.0,4.0,43,0.00,CLR,SKC,0.00,WeatherDisplay:10.37,2013-06-04 19:07:00,
2013-06-04 15:12:00,74.4,51.1,29.99,NNE,26,1.1,0.0,44,0.00,CLR,SKC,0.00,WeatherDisplay:10.37,2013-06-04 19:12:00,
2013-06-04 15:17:00,74.6,48.7,29.98,WSW,256,3.0,3.0,40,0.00,CLR,SKC,0.00,WeatherDisplay:10.37,2013-06-04 19:17:00,
2013-06-04 15:22:00,74.6,45.9,29.98,SSW,213,3.4,3.4,36,0.00,CLR,SKC,0.00,WeatherDisplay:10.37,2013-06-04 19:22:00,
2013-06-04 15:27:00,74.7,51.3,29.98,NNE,30,4.6,4.6,44,0.00,CLR,SKC,0.00,WeatherDisplay:10.37,2013-06-04 19:27:00,
2013-06-04 15:32:00,75.0,47.0,29.98,NNE,16,4.6,4.6,37,0.00,CLR,SKC,0.00,WeatherDisplay:10.37,2013-06-04 19:32:00,
2013-06-04 15:37:00,75.5,45.9,29.98,NE,51,1.1,1.7,35,0.00,CLR,SKC,0.00,WeatherDisplay:10.37,2013-06-04 19:37:00,
2013-06-04 15:42:00,75.5,46.7,29.98,SSW,204,4.6,4.6,36,0.00,CLR,SKC,0.00,WeatherDisplay:10.37,2013-06-04 19:42:00,
2013-06-04 15:47:00,75.5,45.9,29.98,NE,35,1.1,0.0,35,0.00,CLR,SKC,0.00,WeatherDisplay:10.37,2013-06-04 19:47:00,
2013-06-04 15:52:00,75.4,45.1,29.97,SSE,167,2.3,2.3,34,0.00,CLR,SKC,0.00,WeatherDisplay:10.37,2013-06-04 19:52:00,
2013-06-04 15:57:00,75.4,46.6,29.97,NNW,338,3.4,3.4,36,0.00,CLR,SKC,0.00,WeatherDisplay:10.37,2013-06-04 19:57:00,
2013-06-04 16:02:00,75.4,47.3,29.97,WSW,248,1.1,0.0,37,0.00,CLR,SKC,0.00,WeatherDisplay:10.37,2013-06-04 20:02:00,
2013-06-04 16:07:00,75.6,47.5,29.97,NE,46,4.6,4.6,37,0.00,CLR,SKC,0.00,WeatherDisplay:10.37,2013-06-04 20:07:00,
2013-06-04 16:12:00,75.8,47.7,29.97,East,99,4.6,4.6,37,0.00,CLR,SKC,0.00,WeatherDisplay:10.37,2013-06-04 20:12:00,
2013-06-04 16:17:00,75.8,46.2,29.97,North,9,1.1,0.0,35,0.00,CLR,SKC,0.00,WeatherDisplay:10.37,2013-06-04 20:17:00,
2013-06-04 16:22:00,75.9,45.5,29.97,SSW,210,3.4,0.0,34,0.00,CLR,SKC,0.00,WeatherDisplay:10.37,2013-06-04 20:22:00,
2013-06-04 16:27:00,75.7,46.8,29.97,SSW,205,1.1,1.1,36,0.00,CLR,SKC,0.00,WeatherDisplay:10.37,2013-06-04 20:27:00,
2013-06-04 16:32:00,75.6,44.5,29.97,NE,36,3.4,3.4,33,0.00,CLR,SKC,0.00,WeatherDisplay:10.37,2013-06-04 20:32:00,
2013-06-04 16:37:00,75.8,46.9,29.97,NNE,26,3.0,3.0,36,0.00,CLR,SKC,0.00,WeatherDisplay:10.37,2013-06-04 20:37:00,
2013-06-04 16:42:00,76.0,49.2,29.97,NE,38,3.4,3.4,39,0.00,CLR,SKC,0.00,WeatherDisplay:10.37,2013-06-04 20:42:00,
2013-06-04 16:47:00,76.4,46.7,29.98,NNE,24,3.4,3.4,35,0.00,CLR,SKC,0.00,WeatherDisplay:10.37,2013-06-04 20:47:00,
2013-06-04 16:52:00,76.6,46.9,29.98,NE,40,3.4,3.4,35,0.00,CLR,SKC,0.00,WeatherDisplay:10.37,2013-06-04 20:52:00,
2013-06-04 16:57:00,76.7,49.2,29.98,NNW,340,1.1,1.1,38,0.00,CLR,SKC,0.00,WeatherDisplay:10.37,2013-06-04 20:57:00,
2013-06-04 17:02:00,76.6,46.1,29.97,NNE,32,9.2,9.2,34,0.00,CLR,SKC,0.00,WeatherDisplay:10.37,2013-06-04 21:02:00,
2013-06-04 17:07:00,76.4,42.7,29.97,NNE,33,3.4,3.4,30,0.00,CLR,SKC,0.00,WeatherDisplay:10.37,2013-06-04 21:07:00,
2013-06-04 17:12:00,76.1,44.9,29.97,SW,215,1.1,1.1,33,0.00,CLR,SKC,0.00,WeatherDisplay:10.37,2013-06-04 21:12:00,
2013-06-04 17:17:00,75.9,42.2,29.97,NE,47,1.1,0.0,30,0.00,CLR,SKC,0.00,WeatherDisplay:10.37,2013-06-04 21:17:00,
2013-06-04 17:22:00,75.9,47.0,29.97,NE,40,3.4,3.4,36,0.00,CLR,SKC,0.00,WeatherDisplay:10.37,2013-06-04 21:22:00,
2013-06-04 17:27:00,76.1,46.5,29.97,NNW,344,0.0,0.0,35,0.00,CLR,SKC,0.00,WeatherDisplay:10.37,2013-06-04 21:27:00,
2013-06-04 17:32:00,76.2,43.3,29.97,North,355,3.4,3.4,31,0.00,CLR,SKC,0.00,WeatherDisplay:10.37,2013-06-04 21:32:00,
2013-06-04 17:37:00,76.2,47.3,29.97,WSW,251,0.0,0.1,36,0.00,CLR,SKC,0.00,WeatherDisplay:10.37,2013-06-04 21:37:00,
2013-06-04 17:42:00,76.3,45.9,29.97,NNW,331,5.8,5.8,34,0.00,CLR,SKC,0.00,WeatherDisplay:10.37,2013-06-04 21:42:00,
2013-06-04 17:47:00,76.3,46.6,29.97,NNW,338,4.6,4.6,35,0.00,CLR,SKC,0.00,WeatherDisplay:10.37,2013-06-04 21:47:00,
2013-06-04 17:52:00,76.1,43.3,29.98,NNW,340,3.4,3.4,31,0.00,CLR,SKC,0.00,WeatherDisplay:10.37,2013-06-04 21:52:00,
2013-06-04 17:57:00,75.9,44.7,29.97,West,271,1.1,1.1,33,0.00,CLR,SKC,0.00,WeatherDisplay:10.37,2013-06-04 21:57:00,
2013-06-04 18:02:00,76.0,43.2,29.97,NNE,28,1.1,1.1,31,0.02,RA,SKC,0.02,WeatherDisplay:10.37,2013-06-04 22:02:00,
2013-06-04 18:07:00,76.2,44.2,29.97,NNW,329,3.4,3.4,32,0.02,RA,SKC,0.02,WeatherDisplay:10.37,2013-06-04 22:07:00,
2013-06-04 18:12:00,76.3,48.1,29.97,NNE,27,4.6,4.6,37,0.02,CLR,SKC,0.02,WeatherDisplay:10.37,2013-06-04 22:12:00,
2013-06-04 18:17:00,76.3,44.3,29.98,NNE,13,3.4,3.4,32,0.02,CLR,SKC,0.02,WeatherDisplay:10.37,2013-06-04 22:17:00,
2013-06-04 18:22:00,76.1,44.1,29.97,SW,226,2.3,2.3,32,0.02,CLR,SKC,0.02,WeatherDisplay:10.37,2013-06-04 22:22:00,
2013-06-04 18:27:00,75.9,46.3,29.98,SE,136,1.1,1.1,35,0.02,CLR,SKC,0.02,WeatherDisplay:10.37,2013-06-04 22:27:00,
2013-06-04 18:32:00,75.6,44.5,29.98,SSW,193,3.4,3.4,33,0.02,CLR,SKC,0.02,WeatherDisplay:10.37,2013-06-04 22:32:00,
2013-06-04 18:37:00,75.4,44.3,29.98,SSW,193,0.0,0.1,33,0.02,CLR,SKC,0.02,WeatherDisplay:10.37,2013-06-04 22:37:00,
2013-06-04 18:42:00,75.3,45.0,29.98,SSW,196,1.1,0.0,34,0.02,CLR,SKC,0.02,WeatherDisplay:10.37,2013-06-04 22:42:00,
2013-06-04 18:47:00,75.6,44.5,29.98,SSW,196,1.1,1.1,33,0.02,CLR,SKC,0.02,WeatherDisplay:10.37,2013-06-04 22:47:00,
2013-06-04 18:52:00,75.7,45.3,29.98,SSW,195,0.0,0.0,34,0.02,CLR,SKC,0.02,WeatherDisplay:10.37,2013-06-04 22:52:00,
2013-06-04 18:57:00,75.6,44.5,29.98,ENE,68,0.0,0.0,33,0.02,CLR,SKC,0.02,WeatherDisplay:10.37,2013-06-04 22:57:00,
2013-06-04 19:02:00,75.3,45.0,29.98,ENE,74,1.1,0.0,34,0.00,CLR,SKC,0.02,WeatherDisplay:10.37,2013-06-04 23:02:00,
2013-06-04 19:07:00,74.9,44.6,29.98,ENE,74,0.0,0.0,34,0.00,CLR,SKC,0.02,WeatherDisplay:10.37,2013-06-04 23:07:00,
2013-06-04 19:12:00,74.6,45.9,29.98,ENE,74,0.0,0.0,36,0.00,CLR,SKC,0.02,WeatherDisplay:10.37,2013-06-04 23:12:00,
2013-06-04 19:17:00,74.3,44.9,29.98,ENE,74,0.0,0.0,35,0.00,CLR,SKC,0.02,WeatherDisplay:10.37,2013-06-04 23:17:00,
2013-06-04 19:22:00,74.0,45.3,29.98,ENE,74,0.0,0.0,36,0.00,CLR,SKC,0.02,WeatherDisplay:10.37,2013-06-04 23:22:00,
2013-06-04 19:27:00,73.7,45.8,29.99,ENE,74,0.0,0.0,37,0.00,CLR,SKC,0.02,WeatherDisplay:10.37,2013-06-04 23:27:00,
2013-06-04 19:32:00,73.4,45.5,29.99,ENE,74,0.0,0.0,37,0.00,CLR,SKC,0.02,WeatherDisplay:10.37,2013-06-04 23:32:00,
2013-06-04 19:37:00,73.1,46.7,29.99,ENE,74,0.0,0.0,39,0.00,CLR,SKC,0.02,WeatherDisplay:10.37,2013-06-04 23:37:00,
2013-06-04 19:42:00,72.9,46.5,29.99,ENE,74,0.0,0.0,39,0.00,CLR,SKC,0.02,WeatherDisplay:10.37,2013-06-04 23:42:00,
2013-06-04 19:47:00,72.6,46.2,29.99,ENE,74,0.0,0.0,39,0.00,CLR,SKC,0.02,WeatherDisplay:10.37,2013-06-04 23:47:00,
2013-06-04 19:52:00,72.4,49.9,29.99,ENE,74,0.0,0.0,45,0.00,CLR,SKC,0.02,WeatherDisplay:10.37,2013-06-04 23:52:00,
2013-06-04 19:57:00,72.0,50.1,29.99,ENE,74,0.0,0.0,46,0.00,CLR,SKC,0.02,WeatherDisplay:10.37,2013-06-04 23:57:00,
2013-06-04 20:02:00,71.5,50.8,29.99,ENE,74,0.0,0.0,48,0.00,CLR,SKC,0.02,WeatherDisplay:10.37,2013-06-05 00:02:00,
2013-06-04 20:07:00,70.9,51.3,29.99,ENE,74,0.0,0.0,50,0.00,CLR,SKC,0.02,WeatherDisplay:10.37,2013-06-05 00:07:00,
2013-06-04 20:12:00,70.2,51.2,29.99,ENE,74,0.0,0.0,51,0.00,CLR,SKC,0.02,WeatherDisplay:10.37,2013-06-05 00:12:00,
2013-06-04 20:17:00,69.4,51.0,30.00,ENE,74,0.0,0.0,52,0.00,CLR,SKC,0.02,WeatherDisplay:10.37,2013-06-05 00:17:00,
2013-06-04 20:22:00,68.6,51.3,30.00,ENE,74,0.0,0.0,54,0.00,CLR,SKC,0.02,WeatherDisplay:10.37,2013-06-05 00:22:00,
2013-06-04 20:27:00,67.8,51.0,30.00,ENE,74,0.0,0.0,55,0.00,CLR,SKC,0.02,WeatherDisplay:10.37,2013-06-05 00:27:00,
2013-06-04 20:32:00,67.1,50.9,30.00,ENE,74,0.0,0.0,56,0.00,CLR,SKC,0.02,WeatherDisplay:10.37,2013-06-05 00:32:00,
2013-06-04 20:37:00,66.4,50.7,30.00,ENE,74,0.0,0.0,57,0.00,CLR,SKC,0.02,WeatherDisplay:10.37,2013-06-05 00:37:00,
2013-06-04 20:42:00,65.7,50.5,30.00,ENE,74,0.0,0.0,58,0.00,CLR,SKC,0.02,WeatherDisplay:10.37,2013-06-05 00:42:00,
2013-06-04 20:47:00,65.1,50.4,30.00,ENE,74,0.0,0.0,59,0.00,CLR,SKC,0.02,WeatherDisplay:10.37,2013-06-05 00:47:00,
2013-06-04 20:52:00,64.4,50.7,30.01,ENE,74,0.0,0.0,61,0.00,CLR,SKC,0.02,WeatherDisplay:10.37,2013-06-05 00:52:00,
2013-06-04 20:57:00,63.8,50.1,30.01,ENE,74,0.0,0.0,61,0.00,CLR,SKC,0.02,WeatherDisplay:10.37,2013-06-05 00:57:00,
2013-06-04 21:02:00,63.3,50.1,30.01,ENE,74,0.0,0.0,62,0.00,CLR,SKC,0.02,WeatherDisplay:10.37,2013-06-05 01:02:00,
2013-06-04 21:07:00,62.8,50.0,30.01,ENE,74,0.0,0.0,63,0.00,CLR,SKC,0.02,WeatherDisplay:10.37,2013-06-05 01:07:00,
2013-06-04 21:12:00,62.3,49.5,30.02,ENE,74,0.0,0.0,63,0.00,CLR,SKC,0.02,WeatherDisplay:10.37,2013-06-05 01:12:00,
2013-06-04 21:17:00,61.8,49.5,30.02,ENE,74,0.0,0.0,64,0.00,CLR,SKC,0.02,WeatherDisplay:10.37,2013-06-05 01:17:00,
2013-06-04 21:22:00,61.4,49.1,30.02,ENE,74,0.0,0.0,64,0.00,CLR,SKC,0.02,WeatherDisplay:10.37,2013-06-05 01:22:00,
2013-06-04 21:27:00,60.9,48.6,30.03,ENE,74,0.0,0.0,64,0.00,CLR,SKC,0.02,WeatherDisplay:10.37,2013-06-05 01:27:00,
2013-06-04 21:32:00,60.5,49.1,30.03,ENE,74,0.0,0.0,66,0.00,CLR,SKC,0.02,WeatherDisplay:10.37,2013-06-05 01:32:00,
2013-06-04 21:37:00,60.2,48.8,30.03,ENE,74,0.0,0.0,66,0.00,CLR,SKC,0.02,WeatherDisplay:10.37,2013-06-05 01:37:00,
2013-06-04 21:42:00,59.8,48.4,30.03,ENE,74,0.0,0.0,66,0.00,CLR,SKC,0.02,WeatherDisplay:10.37,2013-06-05 01:42:00,
2013-06-04 21:47:00,59.5,48.1,30.03,ENE,74,0.0,0.0,66,0.00,CLR,SKC,0.02,WeatherDisplay:10.37,2013-06-05 01:47:00,
2013-06-04 21:52:00,59.1,48.5,30.03,ENE,74,0.0,0.0,68,0.00,CLR,SKC,0.02,WeatherDisplay:10.37,2013-06-05 01:52:00,
2013-06-04 21:57:00,58.7,48.2,30.04,ENE,74,0.0,0.0,68,0.00,CLR,SKC,0.02,WeatherDisplay:10.37,2013-06-05 01:57:00,
2013-06-04 22:02:00,58.4,48.3,30.04,ENE,74,0.0,0.0,69,0.00,CLR,SKC,0.02,WeatherDisplay:10.37,2013-06-05 02:02:00,
2013-06-04 22:07:00,58.1,47.6,30.04,ENE,74,0.0,0.0,68,0.00,CLR,SKC,0.02,WeatherDisplay:10.37,2013-06-05 02:07:00,
2013-06-04 22:12:00,57.8,47.7,30.04,ENE,74,0.0,0.0,69,0.00,CLR,SKC,0.02,WeatherDisplay:10.37,2013-06-05 02:12:00,
2013-06-04 22:17:00,57.6,47.5,30.04,ENE,74,0.0,0.0,69,0.00,CLR,SKC,0.02,WeatherDisplay:10.37,2013-06-05 02:17:00,
2013-06-04 22:22:00,57.4,47.3,30.05,ENE,74,0.0,0.0,69,0.00,CLR,SKC,0.02,WeatherDisplay:10.37,2013-06-05 02:22:00,
2013-06-04 22:27:00,57.2,47.1,30.05,ENE,74,0.0,0.0,69,0.00,CLR,SKC,0.02,WeatherDisplay:10.37,2013-06-05 02:27:00,
2013-06-04 22:32:00,56.9,47.2,30.05,ENE,74,0.0,0.0,70,0.00,CLR,SKC,0.02,WeatherDisplay:10.37,2013-06-05 02:32:00,
2013-06-04 22:37:00,56.7,47.4,30.05,ENE,74,0.0,0.0,71,0.00,CLR,SKC,0.02,WeatherDisplay:10.37,2013-06-05 02:37:00,
2013-06-04 22:42:00,56.4,47.5,30.05,ENE,74,0.0,0.0,72,0.00,CLR,SKC,0.02,WeatherDisplay:10.37,2013-06-05 02:42:00,
2013-06-04 22:47:00,56.2,47.3,30.05,ENE,74,0.0,0.0,72,0.00,CLR,SKC,0.02,WeatherDisplay:10.37,2013-06-05 02:47:00,
2013-06-04 22:52:00,56.1,47.6,30.05,ENE,74,0.0,0.0,73,0.00,CLR,SKC,0.02,WeatherDisplay:10.37,2013-06-05 02:52:00,
2013-06-04 22:57:00,56.0,47.8,30.05,ENE,74,0.0,0.0,74,0.00,CLR,SKC,0.02,WeatherDisplay:10.37,2013-06-05 02:57:00,
2013-06-04 23:02:00,55.8,48.0,30.06,ENE,74,0.0,0.0,75,0.00,CLR,SKC,0.02,WeatherDisplay:10.37,2013-06-05 03:02:00,
2013-06-04 23:07:00,55.7,48.2,30.05,ENE,74,0.0,0.0,76,0.00,CLR,SKC,0.02,WeatherDisplay:10.37,2013-06-05 03:07:00,
2013-06-04 23:12:00,55.5,47.7,30.05,ENE,74,0.0,0.0,75,0.00,CLR,SKC,0.02,WeatherDisplay:10.37,2013-06-05 03:12:00,
2013-06-04 23:17:00,55.3,47.5,30.06,ENE,74,0.0,0.0,75,0.00,CLR,SKC,0.02,WeatherDisplay:10.37,2013-06-05 03:17:00,
2013-06-04 23:22:00,55.1,47.3,30.06,ENE,74,0.0,0.0,75,0.00,CLR,SKC,0.02,WeatherDisplay:10.37,2013-06-05 03:22:00,
2013-06-04 23:27:00,55.0,47.2,30.06,ENE,74,0.0,0.0,75,0.00,CLR,SKC,0.02,WeatherDisplay:10.37,2013-06-05 03:27:00,
2013-06-04 23:32:00,54.8,47.0,30.06,ENE,74,0.0,0.0,75,0.00,CLR,SKC,0.02,WeatherDisplay:10.37,2013-06-05 03:32:00,
2013-06-04 23:37:00,54.7,47.6,30.06,ENE,74,0.0,0.0,77,0.00,CLR,SKC,0.02,WeatherDisplay:10.37,2013-06-05 03:37:00,
2013-06-04 23:42:00,54.6,47.5,30.06,ENE,74,0.0,0.0,77,0.00,CLR,SKC,0.02,WeatherDisplay:10.37,2013-06-05 03:42:00,
2013-06-04 23:47:00,54.5,47.8,30.06,ENE,74,0.0,0.0,78,0.00,CLR,SKC,0.02,WeatherDisplay:10.37,2013-06-05 03:47:00,
2013-06-04 23:52:00,54.4,48.0,30.06,ENE,74,0.0,0.0,79,0.00,CLR,SKC,0.02,WeatherDisplay:10.37,2013-06-05 03:52:00,
2013-06-04 23:57:00,54.3,48.3,30.06,ENE,74,0.0,0.0,80,0.00,CLR,SKC,0.02,WeatherDisplay:10.37,2013-06-05 03:57:00,